Terminal Aerodrome Forecast
Issued by NWS Charleston, WV

Home | Current Version | Previous Version | Text Only | Print | Product List | Glossary On
Versions: 1 2 3 4 5 6 7 8 9 10 11 12 13 14 15 16 17 18 19 20 21 22 23 24 25 26
000
FTUS41 KRLX 140302 AAA
TAFBKW
TAF AMD
KBKW 140302Z 1403/1424 24013G21KT P6SM BKN045 OVC060
     FM140700 26016G30KT P6SM BKN023
     FM141100 28012G23KT P6SM BKN014
     FM141400 30011G20KT P6SM BKN011=

USA.gov is the U.S. government's official web portal to all federal, state and local government web resources and services.